sensor_id;sensor_type;location;lat;lon;timestamp;pressure;altitude;pressure_sealevel;temperature;humidity
74524;BME280;63074;44.696;10.358;2023-12-28T00:01:42;101141.78;;;15.73;100.00
74524;BME280;63074;44.696;10.358;2023-12-28T00:04:08;101136.66;;;15.20;100.00
74524;BME280;63074;44.696;10.358;2023-12-28T00:06:35;101141.53;;;15.35;100.00
74524;BME280;63074;44.696;10.358;2023-12-28T00:09:01;101146.34;;;15.04;100.00
74524;BME280;63074;44.696;10.358;2023-12-28T00:11:27;101137.47;;;15.61;100.00
74524;BME280;63074;44.696;10.358;2023-12-28T00:13:53;101132.00;;;15.32;100.00
74524;BME280;63074;44.696;10.358;2023-12-28T00:16:19;101149.03;;;15.04;100.00
74524;BME280;63074;44.696;10.358;2023-12-28T00:18:46;101138.88;;;15.63;100.00
74524;BME280;63074;44.696;10.358;2023-12-28T00:21:12;101143.56;;;14.41;100.00
74524;BME280;63074;44.696;10.358;2023-12-28T00:23:38;101142.41;;;15.24;100.00
74524;BME280;63074;44.696;10.358;2023-12-28T00:26:04;101136.00;;;15.41;100.00
74524;BME280;63074;44.696;10.358;2023-12-28T00:28:30;101140.56;;;15.52;100.00
74524;BME280;63074;44.696;10.358;2023-12-28T00:30:56;101139.53;;;15.42;100.00
74524;BME280;63074;44.696;10.358;2023-12-28T00:33:23;101135.22;;;15.69;100.00
74524;BME280;63074;44.696;10.358;2023-12-28T00:35:49;101138.34;;;15.49;100.00
74524;BME280;63074;44.696;10.358;2023-12-28T00:38:15;101139.06;;;15.45;100.00
74524;BME280;63074;44.696;10.358;2023-12-28T00:40:41;101145.03;;;15.07;100.00
74524;BME280;63074;44.696;10.358;2023-12-28T00:43:07;101140.69;;;15.58;100.00
74524;BME280;63074;44.696;10.358;2023-12-28T00:45:33;101139.84;;;15.85;100.00
74524;BME280;63074;44.696;10.358;2023-12-28T00:47:59;101136.41;;;15.62;100.00
74524;BME280;63074;44.696;10.358;2023-12-28T00:50:26;101132.19;;;15.14;100.00
74524;BME280;63074;44.696;10.358;2023-12-28T00:52:57;101130.19;;;15.09;100.00
74524;BME280;63074;44.696;10.358;2023-12-28T00:55:23;101134.50;;;14.70;100.00
74524;BME280;63074;44.696;10.358;2023-12-28T00:57:50;101125.13;;;15.13;100.00
74524;BME280;63074;44.696;10.358;2023-12-28T01:00:16;101135.91;;;14.49;100.00
74524;BME280;63074;44.696;10.358;2023-12-28T01:02:42;101127.19;;;15.34;100.00
74524;BME280;63074;44.696;10.358;2023-12-28T01:05:09;101131.78;;;14.94;100.00
74524;BME280;63074;44.696;10.358;2023-12-28T01:07:35;101134.78;;;15.20;100.00
74524;BME280;63074;44.696;10.358;2023-12-28T01:10:01;101129.00;;;15.29;100.00
74524;BME280;63074;44.696;10.358;2023-12-28T01:12:27;101128.25;;;15.33;100.00
74524;BME280;63074;44.696;10.358;2023-12-28T01:14:53;101134.28;;;14.72;100.00
74524;BME280;63074;44.696;10.358;2023-12-28T01:17:20;101136.72;;;14.85;100.00
74524;BME280;63074;44.696;10.358;2023-12-28T01:19:46;101135.53;;;13.81;100.00
74524;BME280;63074;44.696;10.358;2023-12-28T01:22:13;101136.97;;;14.83;100.00
74524;BME280;63074;44.696;10.358;2023-12-28T01:24:39;101144.47;;;14.81;100.00
74524;BME280;63074;44.696;10.358;2023-12-28T01:27:05;101141.06;;;13.26;100.00
74524;BME280;63074;44.696;10.358;2023-12-28T01:29:31;101142.63;;;12.97;100.00
74524;BME280;63074;44.696;10.358;2023-12-28T01:31:58;101149.19;;;12.83;100.00
74524;BME280;63074;44.696;10.358;2023-12-28T01:34:25;101145.06;;;12.80;100.00
74524;BME280;63074;44.696;10.358;2023-12-28T01:36:51;101145.16;;;13.10;100.00
74524;BME280;63074;44.696;10.358;2023-12-28T01:39:17;101138.19;;;12.84;100.00
74524;BME280;63074;44.696;10.358;2023-12-28T01:41:44;101143.00;;;14.09;100.00
74524;BME280;63074;44.696;10.358;2023-12-28T01:44:12;101137.88;;;13.89;100.00
74524;BME280;63074;44.696;10.358;2023-12-28T01:46:38;101141.59;;;13.16;100.00
74524;BME280;63074;44.696;10.358;2023-12-28T01:49:08;101136.41;;;12.97;100.00
74524;BME280;63074;44.696;10.358;2023-12-28T01:51:35;101145.50;;;12.77;100.00
74524;BME280;63074;44.696;10.358;2023-12-28T01:54:02;101149.56;;;12.68;100.00
74524;BME280;63074;44.696;10.358;2023-12-28T01:56:28;101145.44;;;12.84;100.00
74524;BME280;63074;44.696;10.358;2023-12-28T01:58:54;101145.59;;;12.46;100.00
74524;BME280;63074;44.696;10.358;2023-12-28T02:01:21;101145.34;;;12.72;100.00
74524;BME280;63074;44.696;10.358;2023-12-28T02:03:48;101154.38;;;12.41;100.00
74524;BME280;63074;44.696;10.358;2023-12-28T02:06:14;101145.00;;;12.69;100.00
74524;BME280;63074;44.696;10.358;2023-12-28T02:08:45;101143.88;;;13.13;100.00
74524;BME280;63074;44.696;10.358;2023-12-28T02:11:11;101148.66;;;12.74;100.00
74524;BME280;63074;44.696;10.358;2023-12-28T02:13:37;101147.31;;;12.65;100.00
74524;BME280;63074;44.696;10.358;2023-12-28T02:16:30;101140.44;;;13.06;100.00
74524;BME280;63074;44.696;10.358;2023-12-28T02:19:03;101133.19;;;13.25;100.00
74524;BME280;63074;44.696;10.358;2023-12-28T02:21:34;101135.75;;;13.20;100.00
74524;BME280;63074;44.696;10.358;2023-12-28T02:24:00;101133.94;;;12.95;100.00
74524;BME280;63074;44.696;10.358;2023-12-28T02:26:27;101129.47;;;13.01;100.00
74524;BME280;63074;44.696;10.358;2023-12-28T02:28:53;101135.47;;;13.39;100.00
74524;BME280;63074;44.696;10.358;2023-12-28T02:31:24;101126.78;;;13.37;100.00
74524;BME280;63074;44.696;10.358;2023-12-28T02:33:59;101130.16;;;13.33;100.00
74524;BME280;63074;44.696;10.358;2023-12-28T02:36:28;101132.03;;;13.50;100.00
74524;BME280;63074;44.696;10.358;2023-12-28T02:38:56;101130.81;;;13.46;100.00
74524;BME280;63074;44.696;10.358;2023-12-28T02:41:25;101124.72;;;13.21;100.00
74524;BME280;63074;44.696;10.358;2023-12-28T02:43:52;101122.50;;;13.30;100.00
74524;BME280;63074;44.696;10.358;2023-12-28T02:46:18;101122.44;;;13.36;100.00
74524;BME280;63074;44.696;10.358;2023-12-28T02:48:44;101119.91;;;12.87;100.00
74524;BME280;63074;44.696;10.358;2023-12-28T02:51:10;101113.00;;;13.57;100.00
74524;BME280;63074;44.696;10.358;2023-12-28T02:53:36;101108.06;;;13.96;100.00
74524;BME280;63074;44.696;10.358;2023-12-28T02:56:03;101111.25;;;13.51;100.00
74524;BME280;63074;44.696;10.358;2023-12-28T02:58:29;101114.72;;;13.70;100.00
74524;BME280;63074;44.696;10.358;2023-12-28T03:00:55;101111.63;;;13.66;100.00
74524;BME280;63074;44.696;10.358;2023-12-28T03:03:21;101106.44;;;13.53;100.00
74524;BME280;63074;44.696;10.358;2023-12-28T03:05:47;101106.56;;;13.58;100.00
74524;BME280;63074;44.696;10.358;2023-12-28T03:08:14;101096.91;;;13.50;100.00
74524;BME280;63074;44.696;10.358;2023-12-28T03:10:40;101088.38;;;14.30;100.00
74524;BME280;63074;44.696;10.358;2023-12-28T03:13:06;101085.16;;;13.45;100.00
74524;BME280;63074;44.696;10.358;2023-12-28T03:15:33;101083.00;;;14.65;100.00
74524;BME280;63074;44.696;10.358;2023-12-28T03:17:59;101091.53;;;14.15;100.00
74524;BME280;63074;44.696;10.358;2023-12-28T03:20:25;101088.00;;;13.62;100.00
74524;BME280;63074;44.696;10.358;2023-12-28T03:22:52;101078.16;;;13.26;100.00
74524;BME280;63074;44.696;10.358;2023-12-28T03:25:18;101085.13;;;13.75;100.00
74524;BME280;63074;44.696;10.358;2023-12-28T03:27:44;101081.91;;;14.31;100.00
74524;BME280;63074;44.696;10.358;2023-12-28T03:30:11;101079.41;;;13.95;100.00
74524;BME280;63074;44.696;10.358;2023-12-28T03:32:37;101081.56;;;13.63;100.00
74524;BME280;63074;44.696;10.358;2023-12-28T03:35:04;101073.84;;;12.45;100.00
74524;BME280;63074;44.696;10.358;2023-12-28T03:37:31;101071.44;;;12.98;100.00
74524;BME280;63074;44.696;10.358;2023-12-28T03:39:57;101063.25;;;13.23;100.00
74524;BME280;63074;44.696;10.358;2023-12-28T03:42:23;101058.16;;;12.60;100.00
74524;BME280;63074;44.696;10.358;2023-12-28T03:44:50;101056.75;;;12.58;100.00
74524;BME280;63074;44.696;10.358;2023-12-28T03:47:16;101055.59;;;12.47;100.00
74524;BME280;63074;44.696;10.358;2023-12-28T03:49:42;101050.66;;;13.17;100.00
74524;BME280;63074;44.696;10.358;2023-12-28T03:52:08;101053.00;;;12.40;100.00
74524;BME280;63074;44.696;10.358;2023-12-28T03:54:34;101045.50;;;12.61;100.00
74524;BME280;63074;44.696;10.358;2023-12-28T03:57:01;101045.06;;;12.64;100.00
74524;BME280;63074;44.696;10.358;2023-12-28T03:59:27;101054.06;;;13.06;100.00
74524;BME280;63074;44.696;10.358;2023-12-28T04:01:53;101053.56;;;13.15;100.00
74524;BME280;63074;44.696;10.358;2023-12-28T04:04:19;101058.84;;;14.17;100.00
74524;BME280;63074;44.696;10.358;2023-12-28T04:06:45;101050.69;;;13.10;100.00
74524;BME280;63074;44.696;10.358;2023-12-28T04:09:12;101063.63;;;12.35;100.00
74524;BME280;63074;44.696;10.358;2023-12-28T04:11:38;101057.34;;;12.41;100.00
74524;BME280;63074;44.696;10.358;2023-12-28T04:14:04;101052.28;;;13.00;100.00
74524;BME280;63074;44.696;10.358;2023-12-28T04:16:31;101058.00;;;12.92;100.00
74524;BME280;63074;44.696;10.358;2023-12-28T04:18:57;101062.66;;;11.73;100.00
74524;BME280;63074;44.696;10.358;2023-12-28T04:21:23;101062.91;;;11.65;100.00
74524;BME280;63074;44.696;10.358;2023-12-28T04:23:49;101054.63;;;11.98;100.00
74524;BME280;63074;44.696;10.358;2023-12-28T04:26:18;101060.66;;;12.18;100.00
74524;BME280;63074;44.696;10.358;2023-12-28T04:28:46;101058.00;;;12.55;100.00
74524;BME280;63074;44.696;10.358;2023-12-28T04:31:12;101065.69;;;12.33;100.00
74524;BME280;63074;44.696;10.358;2023-12-28T04:33:38;101066.91;;;12.37;100.00
74524;BME280;63074;44.696;10.358;2023-12-28T04:36:05;101070.22;;;12.39;100.00
74524;BME280;63074;44.696;10.358;2023-12-28T04:38:31;101063.63;;;12.72;100.00
74524;BME280;63074;44.696;10.358;2023-12-28T04:40:58;101059.09;;;12.29;100.00
74524;BME280;63074;44.696;10.358;2023-12-28T04:43:25;101073.06;;;12.20;100.00
74524;BME280;63074;44.696;10.358;2023-12-28T04:45:51;101074.31;;;12.42;100.00
74524;BME280;63074;44.696;10.358;2023-12-28T04:48:18;101077.09;;;12.35;100.00
74524;BME280;63074;44.696;10.358;2023-12-28T04:50:47;101084.84;;;12.25;100.00
74524;BME280;63074;44.696;10.358;2023-12-28T04:53:14;101078.72;;;11.87;100.00
74524;BME280;63074;44.696;10.358;2023-12-28T04:55:40;101076.59;;;12.20;100.00
74524;BME280;63074;44.696;10.358;2023-12-28T04:58:06;101079.03;;;11.78;100.00
74524;BME280;63074;44.696;10.358;2023-12-28T05:00:32;101074.94;;;11.94;100.00
74524;BME280;63074;44.696;10.358;2023-12-28T05:02:59;101077.41;;;11.96;100.00
74524;BME280;63074;44.696;10.358;2023-12-28T05:05:25;101082.19;;;11.94;100.00
74524;BME280;63074;44.696;10.358;2023-12-28T05:07:51;101084.50;;;11.59;100.00
74524;BME280;63074;44.696;10.358;2023-12-28T05:10:17;101086.84;;;11.48;100.00
74524;BME280;63074;44.696;10.358;2023-12-28T05:12:43;101085.84;;;11.81;100.00
74524;BME280;63074;44.696;10.358;2023-12-28T05:15:10;101092.88;;;11.82;100.00
74524;BME280;63074;44.696;10.358;2023-12-28T05:17:37;101087.78;;;11.61;100.00
74524;BME280;63074;44.696;10.358;2023-12-28T05:20:04;101081.56;;;11.60;100.00
74524;BME280;63074;44.696;10.358;2023-12-28T05:22:30;101077.34;;;12.09;100.00
74524;BME280;63074;44.696;10.358;2023-12-28T05:24:56;101075.28;;;11.73;100.00
74524;BME280;63074;44.696;10.358;2023-12-28T05:27:22;101077.47;;;12.39;100.00
74524;BME280;63074;44.696;10.358;2023-12-28T05:29:48;101076.28;;;12.10;100.00
74524;BME280;63074;44.696;10.358;2023-12-28T05:32:15;101076.28;;;12.10;100.00
74524;BME280;63074;44.696;10.358;2023-12-28T05:34:41;101079.06;;;11.65;100.00
74524;BME280;63074;44.696;10.358;2023-12-28T05:37:07;101078.34;;;11.52;100.00
74524;BME280;63074;44.696;10.358;2023-12-28T05:39:33;101080.25;;;11.00;100.00
74524;BME280;63074;44.696;10.358;2023-12-28T05:41:59;101078.78;;;11.48;100.00
74524;BME280;63074;44.696;10.358;2023-12-28T05:44:25;101066.22;;;11.29;100.00
74524;BME280;63074;44.696;10.358;2023-12-28T05:46:51;101067.59;;;11.45;100.00
74524;BME280;63074;44.696;10.358;2023-12-28T05:49:18;101063.16;;;11.57;100.00
74524;BME280;63074;44.696;10.358;2023-12-28T05:51:44;101062.47;;;12.00;100.00
74524;BME280;63074;44.696;10.358;2023-12-28T05:54:10;101067.00;;;11.81;100.00
74524;BME280;63074;44.696;10.358;2023-12-28T05:56:36;101059.72;;;12.49;100.00
74524;BME280;63074;44.696;10.358;2023-12-28T05:59:03;101059.50;;;12.51;100.00
74524;BME280;63074;44.696;10.358;2023-12-28T06:01:29;101067.50;;;12.76;100.00
74524;BME280;63074;44.696;10.358;2023-12-28T06:03:55;101073.63;;;11.78;100.00
74524;BME280;63074;44.696;10.358;2023-12-28T06:06:21;101075.47;;;11.46;100.00
74524;BME280;63074;44.696;10.358;2023-12-28T06:08:48;101073.63;;;11.78;100.00
74524;BME280;63074;44.696;10.358;2023-12-28T06:11:14;101074.53;;;11.59;100.00
74524;BME280;63074;44.696;10.358;2023-12-28T06:13:40;101072.31;;;11.88;100.00
74524;BME280;63074;44.696;10.358;2023-12-28T06:16:07;101071.25;;;11.89;100.00
74524;BME280;63074;44.696;10.358;2023-12-28T06:18:33;101085.13;;;11.92;100.00
74524;BME280;63074;44.696;10.358;2023-12-28T06:20:59;101085.28;;;11.66;100.00
74524;BME280;63074;44.696;10.358;2023-12-28T06:23:25;101083.19;;;11.99;100.00
74524;BME280;63074;44.696;10.358;2023-12-28T06:25:52;101087.19;;;11.90;100.00
74524;BME280;63074;44.696;10.358;2023-12-28T06:28:20;101097.44;;;11.43;100.00
74524;BME280;63074;44.696;10.358;2023-12-28T06:30:46;101105.19;;;11.58;100.00
74524;BME280;63074;44.696;10.358;2023-12-28T06:33:12;101110.75;;;11.63;100.00
74524;BME280;63074;44.696;10.358;2023-12-28T06:35:39;101114.47;;;11.69;100.00
74524;BME280;63074;44.696;10.358;2023-12-28T06:38:05;101108.00;;;11.38;100.00
74524;BME280;63074;44.696;10.358;2023-12-28T06:40:32;101122.91;;;10.96;100.00
74524;BME280;63074;44.696;10.358;2023-12-28T06:42:58;101111.25;;;11.02;100.00
74524;BME280;63074;44.696;10.358;2023-12-28T06:45:25;101115.19;;;11.06;100.00
74524;BME280;63074;44.696;10.358;2023-12-28T06:47:53;101117.84;;;11.20;100.00
74524;BME280;63074;44.696;10.358;2023-12-28T06:50:19;101118.03;;;11.25;100.00
74524;BME280;63074;44.696;10.358;2023-12-28T06:52:46;101121.28;;;11.27;100.00
74524;BME280;63074;44.696;10.358;2023-12-28T06:55:12;101119.06;;;11.24;100.00
74524;BME280;63074;44.696;10.358;2023-12-28T06:57:38;101122.13;;;11.65;100.00
74524;BME280;63074;44.696;10.358;2023-12-28T07:00:05;101119.34;;;11.54;100.00
74524;BME280;63074;44.696;10.358;2023-12-28T07:02:31;101115.72;;;11.28;100.00
74524;BME280;63074;44.696;10.358;2023-12-28T07:04:57;101127.28;;;11.80;100.00
74524;BME280;63074;44.696;10.358;2023-12-28T07:07:23;101128.75;;;11.69;100.00
74524;BME280;63074;44.696;10.358;2023-12-28T07:09:49;101131.16;;;11.84;100.00
74524;BME280;63074;44.696;10.358;2023-12-28T07:12:15;101130.19;;;11.72;100.00
74524;BME280;63074;44.696;10.358;2023-12-28T07:14:42;101134.31;;;11.36;100.00
74524;BME280;63074;44.696;10.358;2023-12-28T07:17:08;101137.50;;;11.58;100.00
74524;BME280;63074;44.696;10.358;2023-12-28T07:19:37;101137.03;;;11.68;100.00
74524;BME280;63074;44.696;10.358;2023-12-28T07:22:04;101140.91;;;11.40;100.00
74524;BME280;63074;44.696;10.358;2023-12-28T07:24:30;101142.81;;;12.09;100.00
74524;BME280;63074;44.696;10.358;2023-12-28T07:26:56;101135.00;;;12.26;100.00
74524;BME280;63074;44.696;10.358;2023-12-28T07:29:22;101138.44;;;12.40;100.00
74524;BME280;63074;44.696;10.358;2023-12-28T07:31:48;101138.59;;;11.89;100.00
74524;BME280;63074;44.696;10.358;2023-12-28T07:34:15;101137.88;;;12.06;100.00
74524;BME280;63074;44.696;10.358;2023-12-28T07:36:41;101143.94;;;11.95;100.00
74524;BME280;63074;44.696;10.358;2023-12-28T07:39:09;101146.63;;;11.95;100.00
74524;BME280;63074;44.696;10.358;2023-12-28T07:41:36;101146.72;;;12.81;100.00
74524;BME280;63074;44.696;10.358;2023-12-28T07:44:02;101139.91;;;12.36;100.00
74524;BME280;63074;44.696;10.358;2023-12-28T07:46:28;101139.97;;;11.60;100.00
74524;BME280;63074;44.696;10.358;2023-12-28T07:48:55;101140.44;;;12.20;100.00
74524;BME280;63074;44.696;10.358;2023-12-28T07:51:21;101134.22;;;12.44;100.00
74524;BME280;63074;44.696;10.358;2023-12-28T07:53:47;101147.31;;;11.84;100.00
74524;BME280;63074;44.696;10.358;2023-12-28T07:56:14;101151.13;;;12.33;100.00
74524;BME280;63074;44.696;10.358;2023-12-28T07:58:40;101148.81;;;12.36;100.00
74524;BME280;63074;44.696;10.358;2023-12-28T08:01:15;101149.03;;;12.35;100.00
74524;BME280;63074;44.696;10.358;2023-12-28T08:03:41;101153.88;;;12.26;100.00
74524;BME280;63074;44.696;10.358;2023-12-28T08:06:07;101154.25;;;12.55;100.00
74524;BME280;63074;44.696;10.358;2023-12-28T08:08:33;101156.53;;;13.12;100.00
74524;BME280;63074;44.696;10.358;2023-12-28T08:11:00;101143.63;;;12.78;100.00
74524;BME280;63074;44.696;10.358;2023-12-28T08:13:26;101146.03;;;12.68;100.00
74524;BME280;63074;44.696;10.358;2023-12-28T08:15:52;101148.75;;;13.04;100.00
74524;BME280;63074;44.696;10.358;2023-12-28T08:18:18;101142.47;;;13.29;100.00
74524;BME280;63074;44.696;10.358;2023-12-28T08:20:44;101141.88;;;13.27;100.00
74524;BME280;63074;44.696;10.358;2023-12-28T08:23:11;101142.97;;;13.85;100.00
74524;BME280;63074;44.696;10.358;2023-12-28T08:25:37;101138.09;;;13.76;100.00
74524;BME280;63074;44.696;10.358;2023-12-28T08:28:03;101152.47;;;13.88;100.00
74524;BME280;63074;44.696;10.358;2023-12-28T08:30:30;101144.94;;;14.32;100.00
74524;BME280;63074;44.696;10.358;2023-12-28T08:32:56;101145.31;;;14.47;100.00
74524;BME280;63074;44.696;10.358;2023-12-28T08:35:22;101146.41;;;14.04;100.00
74524;BME280;63074;44.696;10.358;2023-12-28T08:37:48;101143.63;;;14.34;100.00
74524;BME280;63074;44.696;10.358;2023-12-28T08:40:14;101144.59;;;14.51;100.00
74524;BME280;63074;44.696;10.358;2023-12-28T08:42:41;101149.06;;;14.81;100.00
74524;BME280;63074;44.696;10.358;2023-12-28T08:45:07;101150.84;;;14.99;100.00
74524;BME280;63074;44.696;10.358;2023-12-28T08:47:33;101156.19;;;15.22;100.00
74524;BME280;63074;44.696;10.358;2023-12-28T08:49:59;101153.31;;;15.40;100.00
74524;BME280;63074;44.696;10.358;2023-12-28T08:52:26;101150.31;;;15.13;100.00
74524;BME280;63074;44.696;10.358;2023-12-28T08:54:52;101154.66;;;15.26;100.00
74524;BME280;63074;44.696;10.358;2023-12-28T08:57:18;101149.44;;;15.36;100.00
74524;BME280;63074;44.696;10.358;2023-12-28T08:59:44;101153.50;;;15.10;100.00
74524;BME280;63074;44.696;10.358;2023-12-28T09:02:10;101151.63;;;15.51;100.00
74524;BME280;63074;44.696;10.358;2023-12-28T09:04:36;101147.91;;;15.97;100.00
74524;BME280;63074;44.696;10.358;2023-12-28T09:07:04;101155.59;;;15.88;100.00
74524;BME280;63074;44.696;10.358;2023-12-28T09:09:31;101158.00;;;15.85;100.00
74524;BME280;63074;44.696;10.358;2023-12-28T09:11:57;101152.50;;;15.97;100.00
74524;BME280;63074;44.696;10.358;2023-12-28T09:14:23;101159.78;;;15.79;100.00
74524;BME280;63074;44.696;10.358;2023-12-28T09:16:49;101162.88;;;16.00;100.00
74524;BME280;63074;44.696;10.358;2023-12-28T09:19:15;101167.66;;;16.26;100.00
74524;BME280;63074;44.696;10.358;2023-12-28T09:21:42;101161.66;;;16.58;100.00
74524;BME280;63074;44.696;10.358;2023-12-28T09:24:08;101166.84;;;16.42;100.00
74524;BME280;63074;44.696;10.358;2023-12-28T09:26:34;101163.81;;;16.39;100.00
74524;BME280;63074;44.696;10.358;2023-12-28T09:29:01;101163.88;;;16.61;100.00
74524;BME280;63074;44.696;10.358;2023-12-28T09:31:27;101159.34;;;16.49;100.00
74524;BME280;63074;44.696;10.358;2023-12-28T09:33:53;101167.00;;;16.52;100.00
74524;BME280;63074;44.696;10.358;2023-12-28T09:36:19;101168.91;;;16.69;100.00
74524;BME280;63074;44.696;10.358;2023-12-28T09:38:45;101169.38;;;16.49;100.00
74524;BME280;63074;44.696;10.358;2023-12-28T09:41:13;101165.50;;;16.78;100.00
74524;BME280;63074;44.696;10.358;2023-12-28T09:43:56;101162.03;;;17.00;100.00
74524;BME280;63074;44.696;10.358;2023-12-28T09:46:24;101158.31;;;16.67;100.00
74524;BME280;63074;44.696;10.358;2023-12-28T09:48:52;101153.00;;;16.94;100.00
74524;BME280;63074;44.696;10.358;2023-12-28T09:51:20;101152.00;;;17.22;100.00
74524;BME280;63074;44.696;10.358;2023-12-28T09:53:46;101163.16;;;16.65;100.00
74524;BME280;63074;44.696;10.358;2023-12-28T09:56:13;101160.09;;;16.62;100.00
74524;BME280;63074;44.696;10.358;2023-12-28T09:58:42;101165.97;;;16.70;100.00
74524;BME280;63074;44.696;10.358;2023-12-28T10:01:10;101161.97;;;16.61;100.00
74524;BME280;63074;44.696;10.358;2023-12-28T10:03:39;101157.88;;;16.42;100.00
74524;BME280;63074;44.696;10.358;2023-12-28T10:06:06;101165.28;;;16.30;100.00
74524;BME280;63074;44.696;10.358;2023-12-28T10:08:32;101155.44;;;15.78;100.00
74524;BME280;63074;44.696;10.358;2023-12-28T10:10:58;101156.53;;;15.94;100.00
74524;BME280;63074;44.696;10.358;2023-12-28T10:13:26;101148.47;;;15.82;100.00
74524;BME280;63074;44.696;10.358;2023-12-28T10:15:52;101149.41;;;16.55;100.00
74524;BME280;63074;44.696;10.358;2023-12-28T10:18:19;101151.34;;;16.93;100.00
74524;BME280;63074;44.696;10.358;2023-12-28T10:20:50;101156.13;;;16.52;100.00
74524;BME280;63074;44.696;10.358;2023-12-28T10:23:20;101154.81;;;16.21;100.00
74524;BME280;63074;44.696;10.358;2023-12-28T10:25:51;101145.78;;;15.99;100.00
74524;BME280;63074;44.696;10.358;2023-12-28T10:28:19;101148.56;;;16.54;100.00
74524;BME280;63074;44.696;10.358;2023-12-28T10:30:46;101149.41;;;16.38;100.00
74524;BME280;63074;44.696;10.358;2023-12-28T10:33:13;101149.66;;;16.53;100.00
74524;BME280;63074;44.696;10.358;2023-12-28T10:35:40;101145.63;;;16.39;100.00
74524;BME280;63074;44.696;10.358;2023-12-28T10:38:08;101146.47;;;16.73;100.00
74524;BME280;63074;44.696;10.358;2023-12-28T10:40:35;101148.34;;;16.39;100.00
74524;BME280;63074;44.696;10.358;2023-12-28T10:43:07;101136.06;;;16.53;100.00
74524;BME280;63074;44.696;10.358;2023-12-28T10:45:35;101135.28;;;17.30;100.00
74524;BME280;63074;44.696;10.358;2023-12-28T10:48:10;101136.28;;;17.24;100.00
74524;BME280;63074;44.696;10.358;2023-12-28T10:50:49;101136.66;;;16.55;100.00
74524;BME280;63074;44.696;10.358;2023-12-28T11:01:37;101118.31;;;18.63;100.00
74524;BME280;63074;44.696;10.358;2023-12-28T11:04:07;101110.53;;;18.49;100.00
74524;BME280;63074;44.696;10.358;2023-12-28T11:06:35;101103.06;;;19.19;100.00
74524;BME280;63074;44.696;10.358;2023-12-28T11:09:02;101099.88;;;18.80;100.00
74524;BME280;63074;44.696;10.358;2023-12-28T11:11:30;101091.56;;;19.12;100.00
74524;BME280;63074;44.696;10.358;2023-12-28T11:13:58;101090.81;;;19.21;100.00
74524;BME280;63074;44.696;10.358;2023-12-28T11:16:26;101088.00;;;19.01;100.00
74524;BME280;63074;44.696;10.358;2023-12-28T11:18:54;101085.53;;;18.95;100.00
74524;BME280;63074;44.696;10.358;2023-12-28T11:21:21;101092.44;;;18.28;100.00
74524;BME280;63074;44.696;10.358;2023-12-28T11:23:48;101088.13;;;18.32;100.00
74524;BME280;63074;44.696;10.358;2023-12-28T11:26:20;101082.25;;;18.45;100.00
74524;BME280;63074;44.696;10.358;2023-12-28T11:28:46;101076.63;;;18.25;100.00
74524;BME280;63074;44.696;10.358;2023-12-28T11:31:17;101072.78;;;18.16;100.00
74524;BME280;63074;44.696;10.358;2023-12-28T11:33:51;101069.47;;;18.51;100.00
74524;BME280;63074;44.696;10.358;2023-12-28T11:36:34;101075.34;;;18.33;100.00
74524;BME280;63074;44.696;10.358;2023-12-28T11:39:05;101069.31;;;18.63;100.00
74524;BME280;63074;44.696;10.358;2023-12-28T11:41:33;101066.09;;;18.81;100.00
74524;BME280;63074;44.696;10.358;2023-12-28T11:44:05;101058.47;;;19.50;100.00
74524;BME280;63074;44.696;10.358;2023-12-28T11:46:32;101059.19;;;18.21;100.00
74524;BME280;63074;44.696;10.358;2023-12-28T11:49:08;101061.47;;;18.81;100.00
74524;BME280;63074;44.696;10.358;2023-12-28T11:51:38;101053.00;;;18.68;100.00
74524;BME280;63074;44.696;10.358;2023-12-28T11:54:04;101038.69;;;19.08;100.00
74524;BME280;63074;44.696;10.358;2023-12-28T11:56:31;101049.09;;;18.59;100.00
74524;BME280;63074;44.696;10.358;2023-12-28T11:58:58;101051.00;;;17.79;100.00
74524;BME280;63074;44.696;10.358;2023-12-28T12:01:25;101041.56;;;18.29;100.00
74524;BME280;63074;44.696;10.358;2023-12-28T12:03:51;101042.06;;;18.63;100.00
74524;BME280;63074;44.696;10.358;2023-12-28T12:06:18;101036.78;;;18.46;100.00
74524;BME280;63074;44.696;10.358;2023-12-28T12:08:47;101025.16;;;19.43;100.00
74524;BME280;63074;44.696;10.358;2023-12-28T12:11:13;101027.69;;;19.55;100.00
74524;BME280;63074;44.696;10.358;2023-12-28T12:13:40;101027.69;;;19.75;100.00
74524;BME280;63074;44.696;10.358;2023-12-28T12:16:06;101027.34;;;20.33;100.00
74524;BME280;63074;44.696;10.358;2023-12-28T12:18:33;101026.81;;;20.31;100.00
74524;BME280;63074;44.696;10.358;2023-12-28T12:20:59;101021.47;;;20.85;99.14
74524;BME280;63074;44.696;10.358;2023-12-28T12:23:25;101021.19;;;20.86;99.90
74524;BME280;63074;44.696;10.358;2023-12-28T12:25:52;101017.66;;;21.69;94.15
74524;BME280;63074;44.696;10.358;2023-12-28T12:28:18;101017.56;;;24.99;77.82
74524;BME280;63074;44.696;10.358;2023-12-28T12:30:53;101018.00;;;27.92;64.44
74524;BME280;63074;44.696;10.358;2023-12-28T12:33:20;101037.09;;;31.65;52.06
74524;BME280;63074;44.696;10.358;2023-12-28T12:35:47;101039.88;;;31.37;49.40
74524;BME280;63074;44.696;10.358;2023-12-28T12:38:13;101036.28;;;29.19;49.90